sensor_id;sensor_type;location;lat;lon;timestamp;temperature;humidity
21563;DHT22;10942;47.894;11.424;2023-05-10T00:01:05;14.70;99.90
21563;DHT22;10942;47.894;11.424;2023-05-10T00:03:31;14.70;99.90
21563;DHT22;10942;47.894;11.424;2023-05-10T00:05:58;14.60;99.90
21563;DHT22;10942;47.894;11.424;2023-05-10T00:08:23;14.60;99.90
21563;DHT22;10942;47.894;11.424;2023-05-10T00:10:49;14.60;99.90
21563;DHT22;10942;47.894;11.424;2023-05-10T00:13:15;14.60;99.90
21563;DHT22;10942;47.894;11.424;2023-05-10T00:15:41;14.60;99.90
21563;DHT22;10942;47.894;11.424;2023-05-10T00:18:06;14.60;99.90
21563;DHT22;10942;47.894;11.424;2023-05-10T00:20:32;14.60;99.90
21563;DHT22;10942;47.894;11.424;2023-05-10T00:22:58;14.60;99.90
21563;DHT22;10942;47.894;11.424;2023-05-10T00:25:23;14.60;99.90
21563;DHT22;10942;47.894;11.424;2023-05-10T00:27:49;14.50;99.90
21563;DHT22;10942;47.894;11.424;2023-05-10T00:30:15;14.50;99.90
21563;DHT22;10942;47.894;11.424;2023-05-10T00:32:41;14.50;99.90
21563;DHT22;10942;47.894;11.424;2023-05-10T00:35:07;14.50;99.90
21563;DHT22;10942;47.894;11.424;2023-05-10T00:37:33;14.40;99.90
21563;DHT22;10942;47.894;11.424;2023-05-10T00:39:59;14.40;99.90
21563;DHT22;10942;47.894;11.424;2023-05-10T00:42:26;14.40;99.90
21563;DHT22;10942;47.894;11.424;2023-05-10T00:44:53;14.40;99.90
21563;DHT22;10942;47.894;11.424;2023-05-10T00:47:19;14.40;99.90
21563;DHT22;10942;47.894;11.424;2023-05-10T00:49:45;14.40;99.90
21563;DHT22;10942;47.894;11.424;2023-05-10T00:52:11;14.40;99.90
21563;DHT22;10942;47.894;11.424;2023-05-10T00:54:37;14.40;99.90
21563;DHT22;10942;47.894;11.424;2023-05-10T00:57:03;14.40;99.90
21563;DHT22;10942;47.894;11.424;2023-05-10T00:59:28;14.30;99.90
21563;DHT22;10942;47.894;11.424;2023-05-10T01:01:55;14.30;99.90
21563;DHT22;10942;47.894;11.424;2023-05-10T01:04:21;14.30;99.90
21563;DHT22;10942;47.894;11.424;2023-05-10T01:06:51;14.20;99.90
21563;DHT22;10942;47.894;11.424;2023-05-10T01:09:18;14.20;99.90
21563;DHT22;10942;47.894;11.424;2023-05-10T01:11:44;14.20;99.90
21563;DHT22;10942;47.894;11.424;2023-05-10T01:14:10;14.20;99.90
21563;DHT22;10942;47.894;11.424;2023-05-10T01:16:38;14.10;99.90
21563;DHT22;10942;47.894;11.424;2023-05-10T01:27:40;14.10;99.90
21563;DHT22;10942;47.894;11.424;2023-05-10T01:33:26;14.20;99.90
21563;DHT22;10942;47.894;11.424;2023-05-10T01:36:09;14.20;99.90
21563;DHT22;10942;47.894;11.424;2023-05-10T01:38:51;14.20;99.90
21563;DHT22;10942;47.894;11.424;2023-05-10T01:44:18;14.10;99.90
21563;DHT22;10942;47.894;11.424;2023-05-10T01:46:51;14.10;99.90
21563;DHT22;10942;47.894;11.424;2023-05-10T01:49:28;14.10;99.90
21563;DHT22;10942;47.894;11.424;2023-05-10T01:52:00;14.10;99.90
21563;DHT22;10942;47.894;11.424;2023-05-10T01:54:31;14.10;99.90
21563;DHT22;10942;47.894;11.424;2023-05-10T01:57:05;14.10;99.90
21563;DHT22;10942;47.894;11.424;2023-05-10T01:59:34;14.00;99.90
21563;DHT22;10942;47.894;11.424;2023-05-10T02:02:02;14.00;99.90
21563;DHT22;10942;47.894;11.424;2023-05-10T02:04:30;14.00;99.90
21563;DHT22;10942;47.894;11.424;2023-05-10T02:06:57;14.00;99.90
21563;DHT22;10942;47.894;11.424;2023-05-10T02:09:25;14.00;99.90
21563;DHT22;10942;47.894;11.424;2023-05-10T02:11:53;14.00;99.90
21563;DHT22;10942;47.894;11.424;2023-05-10T02:14:19;14.10;99.90
21563;DHT22;10942;47.894;11.424;2023-05-10T02:16:46;14.00;99.90
21563;DHT22;10942;47.894;11.424;2023-05-10T02:19:13;14.00;99.90
21563;DHT22;10942;47.894;11.424;2023-05-10T02:21:40;14.00;99.90
21563;DHT22;10942;47.894;11.424;2023-05-10T02:24:07;14.00;99.90
21563;DHT22;10942;47.894;11.424;2023-05-10T02:26:35;14.00;99.90
21563;DHT22;10942;47.894;11.424;2023-05-10T02:29:02;13.90;99.90
21563;DHT22;10942;47.894;11.424;2023-05-10T02:31:31;13.90;99.90
21563;DHT22;10942;47.894;11.424;2023-05-10T02:33:59;13.90;99.90
21563;DHT22;10942;47.894;11.424;2023-05-10T02:36:26;14.00;99.90
21563;DHT22;10942;47.894;11.424;2023-05-10T02:38:53;14.00;99.90
21563;DHT22;10942;47.894;11.424;2023-05-10T02:41:20;13.90;99.90
21563;DHT22;10942;47.894;11.424;2023-05-10T02:43:50;13.90;99.90
21563;DHT22;10942;47.894;11.424;2023-05-10T02:46:17;13.90;99.90
21563;DHT22;10942;47.894;11.424;2023-05-10T02:48:43;13.90;99.90
21563;DHT22;10942;47.894;11.424;2023-05-10T02:51:12;13.90;99.90
21563;DHT22;10942;47.894;11.424;2023-05-10T02:53:44;13.90;99.90
21563;DHT22;10942;47.894;11.424;2023-05-10T02:56:22;13.90;99.90
21563;DHT22;10942;47.894;11.424;2023-05-10T02:58:49;13.80;99.90
21563;DHT22;10942;47.894;11.424;2023-05-10T03:01:14;13.80;99.90
21563;DHT22;10942;47.894;11.424;2023-05-10T03:03:40;13.70;99.90
21563;DHT22;10942;47.894;11.424;2023-05-10T03:06:06;13.60;99.90
21563;DHT22;10942;47.894;11.424;2023-05-10T03:08:32;13.70;99.90
21563;DHT22;10942;47.894;11.424;2023-05-10T03:11:39;13.60;99.90
21563;DHT22;10942;47.894;11.424;2023-05-10T03:14:16;13.60;99.90
21563;DHT22;10942;47.894;11.424;2023-05-10T03:16:48;13.60;99.90
21563;DHT22;10942;47.894;11.424;2023-05-10T03:19:34;13.60;99.90
21563;DHT22;10942;47.894;11.424;2023-05-10T03:22:05;13.60;99.90
21563;DHT22;10942;47.894;11.424;2023-05-10T03:24:35;13.60;99.90
21563;DHT22;10942;47.894;11.424;2023-05-10T03:27:03;13.50;99.90
21563;DHT22;10942;47.894;11.424;2023-05-10T03:29:31;13.50;99.90
21563;DHT22;10942;47.894;11.424;2023-05-10T03:32:00;13.50;99.90
21563;DHT22;10942;47.894;11.424;2023-05-10T03:34:30;13.50;99.90
21563;DHT22;10942;47.894;11.424;2023-05-10T03:39:24;13.30;99.90
21563;DHT22;10942;47.894;11.424;2023-05-10T03:41:54;13.40;99.90
21563;DHT22;10942;47.894;11.424;2023-05-10T03:44:19;13.30;99.90
21563;DHT22;10942;47.894;11.424;2023-05-10T03:46:45;13.30;99.90
21563;DHT22;10942;47.894;11.424;2023-05-10T03:49:11;13.30;99.90
21563;DHT22;10942;47.894;11.424;2023-05-10T03:51:37;13.30;99.90
21563;DHT22;10942;47.894;11.424;2023-05-10T03:54:03;13.40;99.90
21563;DHT22;10942;47.894;11.424;2023-05-10T03:56:29;13.10;99.90
21563;DHT22;10942;47.894;11.424;2023-05-10T04:37:54;13.10;99.90
21563;DHT22;10942;47.894;11.424;2023-05-10T04:40:20;13.20;99.90
21563;DHT22;10942;47.894;11.424;2023-05-10T04:42:46;13.20;99.90
21563;DHT22;10942;47.894;11.424;2023-05-10T04:45:12;13.10;99.90
21563;DHT22;10942;47.894;11.424;2023-05-10T04:47:38;13.20;99.90
21563;DHT22;10942;47.894;11.424;2023-05-10T04:50:04;13.20;99.90
21563;DHT22;10942;47.894;11.424;2023-05-10T04:52:30;13.10;99.90
21563;DHT22;10942;47.894;11.424;2023-05-10T04:54:55;13.10;99.90
21563;DHT22;10942;47.894;11.424;2023-05-10T04:57:21;13.10;99.90
21563;DHT22;10942;47.894;11.424;2023-05-10T04:59:47;13.00;99.90
21563;DHT22;10942;47.894;11.424;2023-05-10T05:02:13;13.00;99.90
21563;DHT22;10942;47.894;11.424;2023-05-10T05:04:38;13.00;99.90
21563;DHT22;10942;47.894;11.424;2023-05-10T05:07:04;13.00;99.90
21563;DHT22;10942;47.894;11.424;2023-05-10T05:09:30;13.00;99.90
21563;DHT22;10942;47.894;11.424;2023-05-10T05:11:57;13.00;99.90
21563;DHT22;10942;47.894;11.424;2023-05-10T05:14:23;13.00;99.90
21563;DHT22;10942;47.894;11.424;2023-05-10T05:16:51;13.10;99.90
21563;DHT22;10942;47.894;11.424;2023-05-10T05:19:17;13.10;99.90
21563;DHT22;10942;47.894;11.424;2023-05-10T05:21:42;13.10;99.90
21563;DHT22;10942;47.894;11.424;2023-05-10T05:24:08;13.20;99.90
21563;DHT22;10942;47.894;11.424;2023-05-10T05:26:35;13.10;99.90
21563;DHT22;10942;47.894;11.424;2023-05-10T05:29:02;13.10;99.90
21563;DHT22;10942;47.894;11.424;2023-05-10T05:31:28;13.10;99.90
21563;DHT22;10942;47.894;11.424;2023-05-10T05:33:54;13.10;99.90
21563;DHT22;10942;47.894;11.424;2023-05-10T05:36:20;13.20;99.90
21563;DHT22;10942;47.894;11.424;2023-05-10T05:38:46;13.20;99.90
21563;DHT22;10942;47.894;11.424;2023-05-10T05:41:12;13.20;99.90
21563;DHT22;10942;47.894;11.424;2023-05-10T05:43:38;13.10;99.90
21563;DHT22;10942;47.894;11.424;2023-05-10T05:46:03;13.00;99.90
21563;DHT22;10942;47.894;11.424;2023-05-10T05:48:30;13.00;99.90
21563;DHT22;10942;47.894;11.424;2023-05-10T05:50:56;13.00;99.90
21563;DHT22;10942;47.894;11.424;2023-05-10T05:53:22;13.10;99.90
21563;DHT22;10942;47.894;11.424;2023-05-10T05:55:55;13.30;99.90
21563;DHT22;10942;47.894;11.424;2023-05-10T05:58:22;13.40;99.90
21563;DHT22;10942;47.894;11.424;2023-05-10T06:00:48;13.50;99.90
21563;DHT22;10942;47.894;11.424;2023-05-10T06:03:14;13.50;99.90
21563;DHT22;10942;47.894;11.424;2023-05-10T06:05:39;13.60;99.90
21563;DHT22;10942;47.894;11.424;2023-05-10T06:08:05;13.70;99.90
21563;DHT22;10942;47.894;11.424;2023-05-10T06:10:31;13.70;99.90
21563;DHT22;10942;47.894;11.424;2023-05-10T06:12:57;13.70;99.90
21563;DHT22;10942;47.894;11.424;2023-05-10T06:15:22;13.70;99.90
21563;DHT22;10942;47.894;11.424;2023-05-10T06:17:48;13.60;99.90
21563;DHT22;10942;47.894;11.424;2023-05-10T06:20:15;13.70;99.90
21563;DHT22;10942;47.894;11.424;2023-05-10T06:22:41;13.60;99.90
21563;DHT22;10942;47.894;11.424;2023-05-10T06:25:07;13.60;99.90
21563;DHT22;10942;47.894;11.424;2023-05-10T06:27:34;13.70;99.90
21563;DHT22;10942;47.894;11.424;2023-05-10T06:29:59;13.60;99.90
21563;DHT22;10942;47.894;11.424;2023-05-10T06:32:25;13.60;99.90
21563;DHT22;10942;47.894;11.424;2023-05-10T06:34:51;13.50;99.90
21563;DHT22;10942;47.894;11.424;2023-05-10T06:37:17;13.50;99.90
21563;DHT22;10942;47.894;11.424;2023-05-10T06:39:43;13.50;99.90
21563;DHT22;10942;47.894;11.424;2023-05-10T06:42:09;13.60;99.90
21563;DHT22;10942;47.894;11.424;2023-05-10T06:44:35;13.70;99.90
21563;DHT22;10942;47.894;11.424;2023-05-10T06:47:00;13.80;99.90
21563;DHT22;10942;47.894;11.424;2023-05-10T06:49:26;13.80;99.90
21563;DHT22;10942;47.894;11.424;2023-05-10T06:51:52;13.80;99.90
21563;DHT22;10942;47.894;11.424;2023-05-10T06:54:17;13.80;99.90
21563;DHT22;10942;47.894;11.424;2023-05-10T06:56:43;13.70;99.90
21563;DHT22;10942;47.894;11.424;2023-05-10T06:59:09;13.90;99.90
21563;DHT22;10942;47.894;11.424;2023-05-10T07:01:34;14.00;99.90
21563;DHT22;10942;47.894;11.424;2023-05-10T07:04:00;14.00;99.90
21563;DHT22;10942;47.894;11.424;2023-05-10T07:06:26;14.20;99.90
21563;DHT22;10942;47.894;11.424;2023-05-10T07:08:52;14.40;99.90
21563;DHT22;10942;47.894;11.424;2023-05-10T07:11:18;14.60;99.90
21563;DHT22;10942;47.894;11.424;2023-05-10T07:13:44;14.70;99.90
21563;DHT22;10942;47.894;11.424;2023-05-10T07:16:12;14.70;99.90
21563;DHT22;10942;47.894;11.424;2023-05-10T07:18:38;14.70;99.90
21563;DHT22;10942;47.894;11.424;2023-05-10T07:21:04;14.40;99.90
21563;DHT22;10942;47.894;11.424;2023-05-10T07:23:29;14.50;99.90
21563;DHT22;10942;47.894;11.424;2023-05-10T07:25:55;14.70;99.90
21563;DHT22;10942;47.894;11.424;2023-05-10T07:28:23;15.10;99.90
21563;DHT22;10942;47.894;11.424;2023-05-10T07:30:49;15.40;99.90
21563;DHT22;10942;47.894;11.424;2023-05-10T07:33:16;15.30;99.90
21563;DHT22;10942;47.894;11.424;2023-05-10T07:35:42;15.30;99.90
21563;DHT22;10942;47.894;11.424;2023-05-10T07:38:08;15.50;99.90
21563;DHT22;10942;47.894;11.424;2023-05-10T07:40:36;15.30;99.90
21563;DHT22;10942;47.894;11.424;2023-05-10T07:43:03;15.40;99.90
21563;DHT22;10942;47.894;11.424;2023-05-10T07:45:29;15.60;99.90
21563;DHT22;10942;47.894;11.424;2023-05-10T07:47:54;16.40;99.90
21563;DHT22;10942;47.894;11.424;2023-05-10T07:50:20;17.20;99.90
21563;DHT22;10942;47.894;11.424;2023-05-10T07:52:47;17.30;99.90
21563;DHT22;10942;47.894;11.424;2023-05-10T07:55:13;17.30;99.90
21563;DHT22;10942;47.894;11.424;2023-05-10T07:57:39;17.70;99.90
21563;DHT22;10942;47.894;11.424;2023-05-10T08:00:06;17.70;99.90
21563;DHT22;10942;47.894;11.424;2023-05-10T08:02:38;17.20;99.90
21563;DHT22;10942;47.894;11.424;2023-05-10T08:05:05;17.50;99.90
21563;DHT22;10942;47.894;11.424;2023-05-10T08:07:30;17.90;99.90
21563;DHT22;10942;47.894;11.424;2023-05-10T08:09:56;18.20;99.90
21563;DHT22;10942;47.894;11.424;2023-05-10T08:12:22;18.30;99.90
21563;DHT22;10942;47.894;11.424;2023-05-10T08:14:48;18.70;99.90
21563;DHT22;10942;47.894;11.424;2023-05-10T08:17:13;18.80;99.90
21563;DHT22;10942;47.894;11.424;2023-05-10T08:19:39;18.60;99.90
21563;DHT22;10942;47.894;11.424;2023-05-10T08:22:05;18.60;99.90
21563;DHT22;10942;47.894;11.424;2023-05-10T08:24:30;18.80;99.90
21563;DHT22;10942;47.894;11.424;2023-05-10T08:26:56;18.20;99.90
21563;DHT22;10942;47.894;11.424;2023-05-10T08:29:22;18.00;99.90
21563;DHT22;10942;47.894;11.424;2023-05-10T08:31:48;17.50;99.90
21563;DHT22;10942;47.894;11.424;2023-05-10T08:34:14;17.40;99.90
21563;DHT22;10942;47.894;11.424;2023-05-10T08:36:40;17.60;99.90
21563;DHT22;10942;47.894;11.424;2023-05-10T08:39:06;17.60;99.90
21563;DHT22;10942;47.894;11.424;2023-05-10T08:41:33;17.20;99.90
21563;DHT22;10942;47.894;11.424;2023-05-10T08:44:04;17.20;99.90
21563;DHT22;10942;47.894;11.424;2023-05-10T08:46:31;16.80;99.90
21563;DHT22;10942;47.894;11.424;2023-05-10T08:49:02;16.60;99.90
21563;DHT22;10942;47.894;11.424;2023-05-10T08:51:31;16.50;99.90
21563;DHT22;10942;47.894;11.424;2023-05-10T08:54:01;16.40;99.90
21563;DHT22;10942;47.894;11.424;2023-05-10T08:56:28;16.30;99.90
21563;DHT22;10942;47.894;11.424;2023-05-10T08:58:53;16.00;99.90
21563;DHT22;10942;47.894;11.424;2023-05-10T09:01:21;15.60;99.90
21563;DHT22;10942;47.894;11.424;2023-05-10T09:03:47;15.50;99.90
21563;DHT22;10942;47.894;11.424;2023-05-10T09:06:13;15.30;99.90
21563;DHT22;10942;47.894;11.424;2023-05-10T09:08:41;15.40;99.90
21563;DHT22;10942;47.894;11.424;2023-05-10T09:11:09;15.50;99.90
21563;DHT22;10942;47.894;11.424;2023-05-10T09:13:35;15.40;99.90
21563;DHT22;10942;47.894;11.424;2023-05-10T09:16:02;15.30;99.90
21563;DHT22;10942;47.894;11.424;2023-05-10T09:18:28;15.40;99.90
21563;DHT22;10942;47.894;11.424;2023-05-10T09:20:54;15.50;99.90
21563;DHT22;10942;47.894;11.424;2023-05-10T09:23:20;15.60;99.90
21563;DHT22;10942;47.894;11.424;2023-05-10T09:25:46;15.50;99.90
21563;DHT22;10942;47.894;11.424;2023-05-10T09:28:12;15.60;99.90
21563;DHT22;10942;47.894;11.424;2023-05-10T09:30:38;15.50;99.90
21563;DHT22;10942;47.894;11.424;2023-05-10T09:33:03;15.50;99.90
21563;DHT22;10942;47.894;11.424;2023-05-10T09:35:33;15.60;99.90
21563;DHT22;10942;47.894;11.424;2023-05-10T09:38:08;15.70;99.90
21563;DHT22;10942;47.894;11.424;2023-05-10T09:40:33;15.80;99.90
21563;DHT22;10942;47.894;11.424;2023-05-10T09:43:06;15.90;99.90
21563;DHT22;10942;47.894;11.424;2023-05-10T09:45:33;15.90;99.90
21563;DHT22;10942;47.894;11.424;2023-05-10T09:48:01;16.00;99.90
21563;DHT22;10942;47.894;11.424;2023-05-10T09:50:28;16.00;99.90
21563;DHT22;10942;47.894;11.424;2023-05-10T09:52:56;16.00;99.90
21563;DHT22;10942;47.894;11.424;2023-05-10T09:58:04;16.30;99.90
21563;DHT22;10942;47.894;11.424;2023-05-10T10:00:36;16.40;99.90
21563;DHT22;10942;47.894;11.424;2023-05-10T10:03:03;16.40;99.90
21563;DHT22;10942;47.894;11.424;2023-05-10T10:05:34;16.50;99.90
21563;DHT22;10942;47.894;11.424;2023-05-10T10:08:01;16.70;99.90
21563;DHT22;10942;47.894;11.424;2023-05-10T10:10:28;16.70;99.90
21563;DHT22;10942;47.894;11.424;2023-05-10T10:12:54;16.70;99.90
21563;DHT22;10942;47.894;11.424;2023-05-10T10:15:21;16.90;99.90
21563;DHT22;10942;47.894;11.424;2023-05-10T10:17:49;17.00;99.90
21563;DHT22;10942;47.894;11.424;2023-05-10T10:20:15;17.00;99.90
21563;DHT22;10942;47.894;11.424;2023-05-10T10:22:41;17.20;99.90
21563;DHT22;10942;47.894;11.424;2023-05-10T10:25:07;17.20;99.90
21563;DHT22;10942;47.894;11.424;2023-05-10T10:30:42;16.70;99.90
21563;DHT22;10942;47.894;11.424;2023-05-10T10:35:54;16.10;99.90
21563;DHT22;10942;47.894;11.424;2023-05-10T10:38:20;15.90;99.90
21563;DHT22;10942;47.894;11.424;2023-05-10T10:40:47;15.80;99.90
21563;DHT22;10942;47.894;11.424;2023-05-10T10:43:26;15.60;99.90
21563;DHT22;10942;47.894;11.424;2023-05-10T10:46:15;15.40;99.90
21563;DHT22;10942;47.894;11.424;2023-05-10T10:48:49;15.10;99.90
21563;DHT22;10942;47.894;11.424;2023-05-10T10:51:16;14.90;99.90
21563;DHT22;10942;47.894;11.424;2023-05-10T10:53:43;14.70;99.90
21563;DHT22;10942;47.894;11.424;2023-05-10T10:56:10;14.50;99.90
21563;DHT22;10942;47.894;11.424;2023-05-10T11:08:34;14.30;99.90
21563;DHT22;10942;47.894;11.424;2023-05-10T11:13:29;13.20;99.90
21563;DHT22;10942;47.894;11.424;2023-05-10T11:15:55;13.20;99.90
21563;DHT22;10942;47.894;11.424;2023-05-10T11:18:31;13.20;99.90
21563;DHT22;10942;47.894;11.424;2023-05-10T15:26:15;13.30;99.90
21563;DHT22;10942;47.894;11.424;2023-05-10T15:28:41;12.80;99.90
21563;DHT22;10942;47.894;11.424;2023-05-10T15:31:07;12.60;99.90
21563;DHT22;10942;47.894;11.424;2023-05-10T15:33:32;12.50;99.90
21563;DHT22;10942;47.894;11.424;2023-05-10T15:35:58;12.50;99.90
21563;DHT22;10942;47.894;11.424;2023-05-10T15:38:24;12.50;99.90
21563;DHT22;10942;47.894;11.424;2023-05-10T15:40:49;12.70;99.90
21563;DHT22;10942;47.894;11.424;2023-05-10T17:54:58;12.70;99.90
21563;DHT22;10942;47.894;11.424;2023-05-10T18:09:34;11.70;99.90
21563;DHT22;10942;47.894;11.424;2023-05-10T19:39:56;11.00;99.90
21563;DHT22;10942;47.894;11.424;2023-05-10T19:42:21;10.90;99.90
21563;DHT22;10942;47.894;11.424;2023-05-10T21:41:50;10.50;99.90
21563;DHT22;10942;47.894;11.424;2023-05-10T21:46:41;10.30;99.90
21563;DHT22;10942;47.894;11.424;2023-05-10T21:49:07;10.30;99.90
21563;DHT22;10942;47.894;11.424;2023-05-10T21:51:33;10.20;99.90
21563;DHT22;10942;47.894;11.424;2023-05-10T21:53:58;10.10;99.90
21563;DHT22;10942;47.894;11.424;2023-05-10T22:01:19;10.30;99.90
21563;DHT22;10942;47.894;11.424;2023-05-10T22:03:45;10.30;99.90
21563;DHT22;10942;47.894;11.424;2023-05-10T22:06:10;10.30;99.90
21563;DHT22;10942;47.894;11.424;2023-05-10T22:08:36;10.30;99.90
21563;DHT22;10942;47.894;11.424;2023-05-10T22:11:02;10.30;99.90
21563;DHT22;10942;47.894;11.424;2023-05-10T22:13:28;10.30;99.90
21563;DHT22;10942;47.894;11.424;2023-05-10T22:15:53;10.30;99.90
21563;DHT22;10942;47.894;11.424;2023-05-10T22:18:19;10.30;99.90
21563;DHT22;10942;47.894;11.424;2023-05-10T22:20:45;10.30;99.90
21563;DHT22;10942;47.894;11.424;2023-05-10T22:23:12;10.20;99.90
21563;DHT22;10942;47.894;11.424;2023-05-10T22:25:37;10.20;99.90
21563;DHT22;10942;47.894;11.424;2023-05-10T22:28:03;10.20;99.90
21563;DHT22;10942;47.894;11.424;2023-05-10T22:30:29;10.10;99.90
21563;DHT22;10942;47.894;11.424;2023-05-10T22:32:57;10.20;99.90
21563;DHT22;10942;47.894;11.424;2023-05-10T22:42:41;9.80;99.90
21563;DHT22;10942;47.894;11.424;2023-05-10T22:45:07;9.90;99.90
21563;DHT22;10942;47.894;11.424;2023-05-10T22:47:33;9.90;99.90
21563;DHT22;10942;47.894;11.424;2023-05-10T22:49:59;9.90;99.90
21563;DHT22;10942;47.894;11.424;2023-05-10T22:52:28;9.90;99.90
21563;DHT22;10942;47.894;11.424;2023-05-10T22:54:53;9.90;99.90
21563;DHT22;10942;47.894;11.424;2023-05-10T22:57:19;9.90;99.90
21563;DHT22;10942;47.894;11.424;2023-05-10T22:59:45;9.80;99.90
21563;DHT22;10942;47.894;11.424;2023-05-10T23:02:13;9.80;99.90
21563;DHT22;10942;47.894;11.424;2023-05-10T23:04:39;9.80;99.90
21563;DHT22;10942;47.894;11.424;2023-05-10T23:07:05;9.90;99.90
21563;DHT22;10942;47.894;11.424;2023-05-10T23:09:31;9.80;99.90
21563;DHT22;10942;47.894;11.424;2023-05-10T23:11:57;9.80;99.90
21563;DHT22;10942;47.894;11.424;2023-05-10T23:14:22;9.80;99.90
21563;DHT22;10942;47.894;11.424;2023-05-10T23:16:48;9.70;99.90
21563;DHT22;10942;47.894;11.424;2023-05-10T23:19:14;9.70;99.90
21563;DHT22;10942;47.894;11.424;2023-05-10T23:21:39;9.70;99.90
21563;DHT22;10942;47.894;11.424;2023-05-10T23:24:05;9.70;99.90
21563;DHT22;10942;47.894;11.424;2023-05-10T23:26:32;9.80;99.90
21563;DHT22;10942;47.894;11.424;2023-05-10T23:28:59;9.70;99.90
21563;DHT22;10942;47.894;11.424;2023-05-10T23:31:25;9.70;99.90
21563;DHT22;10942;47.894;11.424;2023-05-10T23:33:50;9.70;99.90
21563;DHT22;10942;47.894;11.424;2023-05-10T23:36:16;9.70;99.90
21563;DHT22;10942;47.894;11.424;2023-05-10T23:38:42;9.70;99.90
21563;DHT22;10942;47.894;11.424;2023-05-10T23:41:07;9.80;99.90
21563;DHT22;10942;47.894;11.424;2023-05-10T23:43:33;9.80;99.90
21563;DHT22;10942;47.894;11.424;2023-05-10T23:45:59;9.80;99.90
21563;DHT22;10942;47.894;11.424;2023-05-10T23:48:25;9.80;99.90
21563;DHT22;10942;47.894;11.424;2023-05-10T23:50:51;9.80;99.90
21563;DHT22;10942;47.894;11.424;2023-05-10T23:53:17;9.80;99.90
21563;DHT22;10942;47.894;11.424;2023-05-10T23:55:43;9.80;99.90
21563;DHT22;10942;47.894;11.424;2023-05-10T23:58:09;9.80;99.90
